createdAt,value
2023-03-06T00:04:44.000Z,0.61
2023-03-06T00:10:24.000Z,0.32
2023-03-06T00:16:03.000Z,0.31
2023-03-06T00:21:43.000Z,0.14
2023-03-06T00:27:22.000Z,0.08
2023-03-06T00:33:02.000Z,0.15
2023-03-06T00:38:41.000Z,0.45
2023-03-06T00:44:21.000Z,0.48
2023-03-06T00:50:00.000Z,0.26
2023-03-06T00:55:40.000Z,0.36
2023-03-06T01:01:19.000Z,0.58
2023-03-06T01:06:59.000Z,0.15
2023-03-06T01:12:38.000Z,0.17
2023-03-06T01:18:18.000Z,0.41
2023-03-06T01:23:57.000Z,0.16
2023-03-06T01:29:37.000Z,0.19
2023-03-06T01:35:16.000Z,0.04
2023-03-06T01:40:56.000Z,0.15
2023-03-06T01:46:35.000Z,0.18
2023-03-06T01:52:15.000Z,0.43
2023-03-06T01:57:54.000Z,0.16
2023-03-06T02:03:34.000Z,0.09
2023-03-06T02:09:13.000Z,0.28
2023-03-06T02:14:53.000Z,0.57
2023-03-06T02:20:32.000Z,0.71
2023-03-06T02:26:12.000Z,0.38
2023-03-06T02:31:51.000Z,0.48
2023-03-06T02:37:31.000Z,0.56
2023-03-06T02:43:10.000Z,0.30
2023-03-06T02:48:50.000Z,0.63
2023-03-06T02:54:29.000Z,0.44
2023-03-06T03:00:09.000Z,0.44
2023-03-06T03:05:48.000Z,0.42
2023-03-06T03:11:28.000Z,0.68
2023-03-06T03:17:07.000Z,0.38
2023-03-06T03:22:47.000Z,0.34
2023-03-06T03:28:26.000Z,0.87
2023-03-06T03:34:06.000Z,0.50
2023-03-06T03:39:45.000Z,0.74
2023-03-06T03:45:25.000Z,0.78
2023-03-06T03:51:04.000Z,0.49
2023-03-06T03:56:44.000Z,0.83
2023-03-06T04:02:23.000Z,0.77
2023-03-06T04:08:03.000Z,0.95
2023-03-06T04:13:42.000Z,0.86
2023-03-06T04:19:22.000Z,0.83
2023-03-06T04:25:01.000Z,0.71
2023-03-06T04:30:41.000Z,0.74
2023-03-06T04:36:20.000Z,0.83
2023-03-06T04:42:00.000Z,0.83
2023-03-06T04:47:39.000Z,0.81
2023-03-06T04:53:19.000Z,0.95
2023-03-06T04:58:58.000Z,0.91
2023-03-06T05:04:38.000Z,0.64
2023-03-06T05:10:17.000Z,0.64
2023-03-06T05:15:57.000Z,0.57
2023-03-06T05:21:36.000Z,0.60
2023-03-06T05:27:16.000Z,0.55
2023-03-06T05:32:55.000Z,0.61
2023-03-06T05:38:34.000Z,0.38
2023-03-06T05:44:14.000Z,0.83
2023-03-06T05:49:53.000Z,0.64
2023-03-06T05:55:33.000Z,0.82
